createdAt,value
2023-04-04T00:00:18.010Z,2.18
2023-04-04T00:02:44.767Z,2.14
2023-04-04T00:05:11.434Z,2.20
2023-04-04T00:07:38.172Z,2.16
2023-04-04T00:10:05.025Z,2.16
2023-04-04T00:12:31.652Z,2.21
2023-04-04T00:14:58.510Z,2.25
2023-04-04T00:17:25.111Z,2.22
2023-04-04T00:19:52.089Z,2.21
2023-04-04T00:22:19.161Z,2.27
2023-04-04T00:24:45.802Z,2.28
2023-04-04T00:27:12.384Z,2.34
2023-04-04T00:29:39.038Z,2.28
2023-04-04T00:32:05.997Z,2.26
2023-04-04T00:34:32.631Z,2.28
2023-04-04T00:36:59.210Z,2.32
2023-04-04T00:39:26.606Z,2.33
2023-04-04T00:41:53.278Z,2.33
2023-04-04T00:44:20.582Z,2.34
2023-04-04T00:46:47.263Z,2.28
2023-04-04T00:49:13.830Z,2.32
2023-04-04T00:51:40.418Z,2.34
2023-04-04T00:54:07.128Z,2.38
2023-04-04T00:56:38.232Z,2.29
2023-04-04T00:59:05.328Z,2.32
2023-04-04T01:01:33.217Z,2.28
2023-04-04T01:03:59.967Z,2.28
2023-04-04T01:06:28.033Z,2.36
2023-04-04T01:08:55.409Z,2.37
2023-04-04T01:11:21.990Z,2.38
2023-04-04T01:13:48.633Z,2.33
2023-04-04T01:16:15.763Z,2.39
2023-04-04T01:18:43.854Z,2.43
2023-04-04T01:21:13.389Z,2.46
2023-04-04T01:24:04.027Z,2.45
2023-04-04T01:26:31.762Z,2.39
2023-04-04T01:28:59.495Z,2.40
2023-04-04T01:31:49.695Z,2.40
2023-04-04T01:34:31.141Z,2.45
2023-04-04T01:37:11.154Z,2.43
2023-04-04T01:40:08.744Z,2.39
2023-04-04T01:42:36.738Z,2.41
2023-04-04T01:45:06.449Z,2.42
2023-04-04T01:47:42.422Z,2.46
2023-04-04T01:50:10.619Z,2.46
2023-04-04T01:52:38.564Z,2.40
2023-04-04T01:55:05.975Z,2.40
2023-04-04T01:57:32.670Z,2.30
2023-04-04T01:59:59.334Z,2.35
2023-04-04T02:02:27.264Z,2.36
2023-04-04T02:04:57.024Z,2.28
2023-04-04T02:07:24.381Z,2.25
2023-04-04T02:09:51.066Z,2.29
2023-04-04T02:12:17.819Z,2.26
2023-04-04T02:14:45.295Z,2.24
2023-04-04T02:17:11.955Z,2.23
2023-04-04T02:19:38.515Z,2.19
2023-04-04T02:22:05.190Z,2.15
2023-04-04T02:24:31.797Z,2.23
2023-04-04T02:27:00.677Z,2.23
2023-04-04T02:29:27.881Z,2.13
2023-04-04T02:31:54.575Z,2.12
2023-04-04T02:34:21.315Z,2.09
2023-04-04T02:36:47.915Z,2.07
2023-04-04T02:39:14.674Z,2.08
2023-04-04T02:41:41.741Z,1.98
2023-04-04T02:44:09.905Z,2.03
2023-04-04T02:46:36.635Z,2.02
2023-04-04T02:49:04.258Z,2.05
2023-04-04T02:51:31.303Z,2.02
2023-04-04T02:53:57.923Z,1.98
2023-04-04T02:56:24.602Z,1.93
2023-04-04T02:58:51.260Z,1.94
2023-04-04T03:01:18.155Z,1.87
2023-04-04T03:03:44.901Z,1.80
2023-04-04T03:06:11.669Z,1.84
2023-04-04T03:08:38.289Z,1.70
2023-04-04T03:11:05.029Z,1.64
2023-04-04T03:13:31.692Z,1.68
2023-04-04T03:16:03.541Z,1.63
2023-04-04T03:18:30.482Z,1.59
2023-04-04T03:20:57.075Z,1.59
2023-04-04T03:23:23.726Z,1.58
2023-04-04T03:25:51.946Z,1.50
2023-04-04T03:28:18.578Z,1.47
2023-04-04T03:30:45.201Z,1.50
2023-04-04T03:33:12.348Z,1.38
2023-04-04T03:35:40.053Z,1.41
2023-04-04T03:38:10.063Z,1.38
2023-04-04T03:40:37.205Z,1.38
2023-04-04T03:43:06.706Z,1.37
2023-04-04T03:45:36.487Z,1.33
2023-04-04T03:48:03.161Z,1.35
2023-04-04T03:50:30.136Z,1.39
2023-04-04T03:52:58.466Z,1.37
2023-04-04T03:55:26.402Z,1.36
2023-04-04T03:57:53.128Z,1.41
2023-04-04T04:00:22.114Z,1.35
2023-04-04T04:02:48.873Z,1.34
2023-04-04T04:05:15.746Z,1.36
2023-04-04T04:07:46.672Z,1.45
2023-04-04T04:10:14.302Z,1.46
2023-04-04T04:12:41.649Z,1.50
2023-04-04T04:15:08.781Z,1.48
2023-04-04T04:17:39.362Z,1.50
2023-04-04T04:20:07.670Z,1.50
2023-04-04T04:22:34.778Z,1.53
2023-04-04T04:25:04.817Z,1.45
2023-04-04T04:27:31.464Z,1.51
2023-04-04T04:29:58.106Z,1.46
2023-04-04T04:32:26.711Z,1.45
2023-04-04T04:34:53.628Z,1.51
2023-04-04T04:37:20.319Z,1.52
2023-04-04T04:39:46.961Z,1.50
2023-04-04T04:42:13.612Z,1.52
2023-04-04T04:44:40.315Z,1.53
2023-04-04T04:47:07.268Z,1.53
2023-04-04T04:49:34.328Z,1.53
2023-04-04T04:52:01.310Z,1.54
2023-04-04T04:54:29.483Z,1.49
2023-04-04T04:56:56.187Z,1.57
2023-04-04T04:59:22.909Z,1.58
2023-04-04T05:01:49.546Z,1.61
2023-04-04T05:04:17.741Z,1.62
2023-04-04T05:06:44.385Z,1.57
2023-04-04T05:09:11.204Z,1.68
2023-04-04T05:15:18.995Z,1.68
2023-04-04T05:17:46.825Z,1.73
2023-04-04T05:20:13.830Z,1.62
2023-04-04T05:22:48.556Z,1.70
2023-04-04T05:25:18.096Z,1.72
2023-04-04T05:27:48.861Z,1.77
2023-04-04T05:30:16.439Z,1.78
2023-04-04T05:32:48.193Z,1.82
2023-04-04T05:35:14.954Z,1.89
2023-04-04T05:37:41.612Z,1.92
2023-04-04T05:40:09.108Z,1.91
2023-04-04T05:42:38.288Z,1.97
2023-04-04T05:45:05.730Z,2.08
2023-04-04T05:47:32.506Z,2.10
2023-04-04T05:49:59.226Z,2.13
2023-04-04T05:52:25.897Z,2.16
2023-04-04T05:54:52.578Z,2.18
2023-04-04T05:57:19.200Z,2.18
2023-04-04T05:59:46.044Z,2.26
2023-04-04T06:02:15.541Z,2.21
2023-04-04T06:04:42.239Z,2.17
2023-04-04T06:07:08.841Z,2.17
2023-04-04T06:09:36.332Z,2.20
2023-04-04T06:12:04.790Z,2.29
2023-04-04T06:14:31.432Z,2.38
2023-04-04T06:16:59.103Z,2.46
2023-04-04T06:19:26.154Z,2.62
2023-04-04T06:21:52.763Z,2.74
2023-04-04T06:24:19.577Z,2.81
2023-04-04T06:26:46.674Z,2.88
2023-04-04T06:29:13.367Z,2.95
2023-04-04T06:31:40.070Z,3.08
2023-04-04T06:34:06.778Z,3.25
2023-04-04T06:36:33.572Z,3.43
2023-04-04T06:39:00.523Z,3.57
2023-04-04T06:41:27.342Z,3.71
2023-04-04T06:43:53.955Z,3.75
2023-04-04T06:46:20.656Z,3.87
2023-04-04T06:48:47.364Z,3.98
2023-04-04T06:51:17.581Z,4.00
2023-04-04T06:53:44.265Z,4.05
2023-04-04T06:56:13.775Z,4.16
2023-04-04T06:58:42.405Z,4.17
2023-04-04T07:01:09.162Z,4.15
2023-04-04T07:03:40.618Z,4.03
2023-04-04T07:06:07.321Z,4.09
2023-04-04T07:08:36.238Z,4.15
2023-04-04T07:11:06.788Z,3.89
2023-04-04T07:13:36.596Z,3.97
2023-04-04T07:16:08.746Z,3.98
2023-04-04T07:18:38.317Z,3.88
2023-04-04T07:21:08.516Z,3.92
2023-04-04T07:23:36.064Z,3.88
2023-04-04T07:26:08.268Z,3.84
2023-04-04T07:28:34.907Z,3.83
2023-04-04T07:31:04.835Z,3.90
2023-04-04T07:33:38.300Z,4.00
2023-04-04T07:36:07.685Z,4.08
2023-04-04T07:38:34.409Z,4.05
2023-04-04T07:41:02.439Z,3.99
2023-04-04T07:43:30.785Z,4.10
2023-04-04T07:46:04.578Z,4.10
2023-04-04T07:48:31.196Z,4.18
2023-04-04T07:51:00.252Z,4.20
2023-04-04T07:53:29.449Z,4.10
2023-04-04T07:55:56.070Z,4.15
2023-04-04T07:58:22.888Z,4.18
2023-04-04T08:00:49.507Z,4.20
2023-04-04T08:03:17.965Z,4.22
2023-04-04T08:05:44.709Z,4.23
2023-04-04T08:08:11.282Z,4.28
2023-04-04T08:10:38.112Z,4.32
2023-04-04T08:13:05.900Z,4.37
2023-04-04T08:15:32.615Z,4.19
2023-04-04T08:17:59.318Z,4.20
2023-04-04T08:20:29.200Z,4.16
2023-04-04T08:22:56.370Z,4.24
2023-04-04T08:25:23.388Z,4.26
2023-04-04T08:27:50.078Z,4.40
2023-04-04T08:30:17.108Z,4.26
2023-04-04T08:32:47.598Z,4.31
2023-04-04T08:35:17.050Z,4.26
2023-04-04T08:37:46.884Z,4.40
2023-04-04T08:40:14.440Z,4.52
2023-04-04T08:42:46.207Z,4.58
2023-04-04T08:45:17.153Z,4.65
2023-04-04T08:47:44.579Z,4.67
2023-04-04T08:50:16.782Z,4.72
2023-04-04T08:52:44.933Z,4.58
2023-04-04T08:55:12.740Z,4.66
2023-04-04T08:57:42.616Z,4.66
2023-04-04T09:00:10.083Z,4.62
2023-04-04T09:02:42.907Z,4.79
2023-04-04T09:05:14.021Z,4.76
2023-04-04T09:07:41.103Z,4.71
2023-04-04T09:10:11.950Z,4.85
2023-04-04T09:12:45.029Z,4.93
2023-04-04T09:15:14.680Z,5.00
2023-04-04T09:17:43.191Z,5.01
2023-04-04T09:20:43.254Z,5.17
2023-04-04T09:23:12.265Z,5.20
2023-04-04T09:25:56.311Z,5.27
2023-04-04T09:28:23.602Z,5.28
2023-04-04T09:30:51.840Z,5.33
2023-04-04T09:33:21.620Z,5.32
2023-04-04T09:36:05.245Z,5.42
2023-04-04T09:38:32.389Z,5.44
2023-04-04T09:40:59.416Z,5.41
2023-04-04T09:43:26.645Z,5.50
2023-04-04T09:45:58.325Z,5.50
2023-04-04T09:48:32.413Z,5.55
2023-04-04T09:50:59.561Z,5.61
2023-04-04T09:53:26.892Z,5.56
2023-04-04T09:55:55.549Z,5.72
2023-04-04T09:58:29.376Z,5.72
2023-04-04T10:00:59.240Z,5.72
2023-04-04T10:03:26.623Z,5.71
2023-04-04T10:06:10.099Z,5.87
2023-04-04T10:08:44.062Z,6.00
2023-04-04T10:11:13.656Z,6.06
2023-04-04T10:13:41.737Z,6.08
2023-04-04T10:16:12.314Z,6.18
2023-04-04T10:18:40.784Z,6.27
2023-04-04T10:21:15.817Z,6.22
2023-04-04T10:23:46.591Z,6.29
2023-04-04T10:26:13.789Z,6.31
2023-04-04T10:28:45.022Z,6.28
2023-04-04T10:31:27.505Z,6.19
2023-04-04T10:34:15.344Z,6.18
2023-04-04T10:36:51.377Z,6.11
2023-04-04T10:39:32.809Z,6.04
2023-04-04T10:42:01.680Z,6.02
2023-04-04T10:44:39.028Z,6.07
2023-04-04T10:47:18.168Z,6.11
2023-04-04T10:49:46.439Z,6.13
2023-04-04T10:52:15.995Z,6.08
2023-04-04T10:54:44.113Z,6.11
2023-04-04T10:57:12.745Z,6.15
2023-04-04T11:00:09.889Z,6.17
2023-04-04T11:02:57.205Z,6.28
2023-04-04T11:05:41.353Z,6.25
2023-04-04T11:08:11.004Z,6.24
2023-04-04T11:10:46.306Z,6.29
2023-04-04T11:13:29.686Z,6.34
2023-04-04T11:16:15.950Z,6.37
2023-04-04T11:18:42.879Z,6.27
2023-04-04T11:21:14.139Z,6.17
2023-04-04T11:23:50.120Z,6.20
2023-04-04T11:26:27.646Z,6.19
2023-04-04T11:28:58.756Z,6.24
2023-04-04T11:31:25.834Z,6.20
2023-04-04T11:34:11.515Z,6.34
2023-04-04T11:36:38.728Z,6.38
2023-04-04T11:39:13.624Z,6.31
2023-04-04T11:41:43.962Z,6.39
2023-04-04T11:44:11.790Z,6.33
2023-04-04T11:46:38.548Z,6.36
2023-04-04T11:49:10.329Z,6.38
2023-04-04T11:51:39.688Z,6.36
2023-04-04T11:54:15.511Z,6.47
2023-04-04T11:56:48.222Z,6.38
2023-04-04T11:59:22.819Z,6.31
2023-04-04T12:01:49.856Z,6.20
2023-04-04T12:04:20.505Z,6.20
2023-04-04T12:06:51.692Z,6.17
2023-04-04T12:09:20.430Z,6.05
2023-04-04T12:11:47.884Z,6.01
2023-04-04T12:14:24.303Z,6.11
2023-04-04T12:16:54.467Z,6.17
2023-04-04T12:19:27.778Z,6.05
2023-04-04T12:21:54.998Z,6.00
2023-04-04T12:24:21.921Z,6.03
2023-04-04T12:26:51.741Z,5.96
2023-04-04T12:29:23.388Z,5.98
2023-04-04T12:31:51.954Z,5.93
2023-04-04T12:37:02.966Z,5.83
2023-04-04T12:39:30.570Z,5.89
2023-04-04T12:42:03.622Z,5.96
2023-04-04T12:44:43.217Z,6.04
2023-04-04T12:47:11.396Z,6.06
2023-04-04T12:49:44.433Z,6.15
2023-04-04T12:52:30.080Z,6.12
2023-04-04T12:55:11.178Z,6.08
2023-04-04T12:57:39.524Z,6.01
2023-04-04T13:00:09.977Z,5.89
2023-04-04T13:02:43.093Z,5.88
2023-04-04T13:05:11.241Z,5.89
2023-04-04T13:07:43.690Z,5.90
2023-04-04T13:10:15.048Z,5.98
2023-04-04T13:13:02.578Z,5.88
2023-04-04T13:15:51.512Z,5.88
2023-04-04T13:18:24.874Z,5.95
2023-04-04T13:20:53.552Z,5.93
2023-04-04T13:23:20.961Z,6.00
2023-04-04T13:25:47.947Z,5.98
2023-04-04T13:28:14.636Z,5.97
2023-04-04T13:30:46.921Z,5.93
2023-04-04T13:33:16.411Z,5.99
2023-04-04T13:35:46.603Z,5.93
2023-04-04T13:38:13.882Z,5.91
2023-04-04T13:40:40.847Z,5.98
2023-04-04T13:43:07.926Z,5.93
2023-04-04T13:45:35.946Z,5.96
2023-04-04T13:48:04.118Z,6.01
2023-04-04T13:50:36.294Z,5.90
2023-04-04T13:53:06.107Z,5.80
2023-04-04T13:55:32.735Z,5.73
2023-04-04T13:58:02.278Z,5.76
2023-04-04T14:00:29.087Z,5.84
2023-04-04T14:02:57.966Z,5.89
2023-04-04T14:05:24.711Z,5.87
2023-04-04T14:07:51.585Z,5.90
2023-04-04T14:10:18.558Z,5.91
2023-04-04T14:12:45.219Z,5.81
2023-04-04T14:15:13.758Z,5.86
2023-04-04T14:17:40.596Z,5.89
2023-04-04T14:20:08.567Z,5.93
2023-04-04T14:22:35.646Z,5.89
2023-04-04T14:25:02.423Z,6.03
2023-04-04T14:27:31.651Z,5.90
2023-04-04T14:29:58.420Z,5.89
2023-04-04T14:32:26.022Z,5.75
2023-04-04T14:34:52.678Z,5.78
2023-04-04T14:37:19.814Z,5.85
2023-04-04T14:39:46.499Z,5.97
2023-04-04T14:42:13.129Z,5.93
2023-04-04T14:44:40.514Z,5.91
2023-04-04T14:47:07.297Z,5.90
2023-04-04T14:49:36.360Z,5.84
2023-04-04T14:52:03.052Z,5.84
2023-04-04T14:54:29.768Z,5.79
2023-04-04T14:56:57.941Z,5.71
2023-04-04T14:59:24.645Z,5.73
2023-04-04T15:01:51.626Z,5.73
2023-04-04T15:04:18.344Z,5.73
2023-04-04T15:06:45.004Z,5.77
2023-04-04T15:09:11.880Z,5.65
2023-04-04T15:11:38.655Z,5.62
2023-04-04T15:14:06.044Z,5.63
2023-04-04T15:16:33.515Z,5.60
2023-04-04T15:19:00.987Z,5.52
2023-04-04T15:21:28.962Z,5.54
2023-04-04T15:23:55.923Z,5.51
2023-04-04T15:26:22.912Z,5.55
2023-04-04T15:28:52.349Z,5.47
2023-04-04T15:31:20.932Z,5.50
2023-04-04T15:33:50.430Z,5.46
2023-04-04T15:36:17.520Z,5.33
2023-04-04T15:38:44.333Z,5.39
2023-04-04T15:41:11.401Z,5.30
2023-04-04T15:43:38.427Z,5.25
2023-04-04T15:46:05.518Z,5.18
2023-04-04T15:48:32.609Z,5.15
2023-04-04T15:51:02.674Z,5.15
2023-04-04T15:53:32.810Z,5.16
2023-04-04T15:56:00.815Z,5.05
2023-04-04T15:58:27.702Z,5.03
2023-04-04T16:00:55.939Z,5.05
2023-04-04T16:03:24.712Z,4.97
2023-04-04T16:05:51.624Z,4.96
2023-04-04T16:08:18.583Z,4.89
2023-04-04T16:10:45.263Z,4.89
2023-04-04T16:13:13.422Z,4.87
2023-04-04T16:15:40.217Z,4.82
2023-04-04T16:18:07.337Z,4.74
2023-04-04T16:20:34.253Z,4.76
2023-04-04T16:23:00.948Z,4.68
2023-04-04T16:25:27.740Z,4.59
2023-04-04T16:27:54.394Z,4.57
2023-04-04T16:30:21.127Z,4.62
2023-04-04T16:32:47.956Z,4.43
2023-04-04T16:35:14.625Z,4.44
2023-04-04T16:37:41.226Z,4.46
2023-04-04T16:40:08.458Z,4.45
2023-04-04T16:42:36.184Z,4.47
2023-04-04T16:45:03.004Z,4.38
2023-04-04T16:47:29.746Z,4.33
2023-04-04T16:49:56.532Z,4.23
2023-04-04T16:52:23.213Z,4.21
2023-04-04T16:54:49.928Z,4.22
2023-04-04T16:57:16.596Z,4.08
2023-04-04T16:59:43.756Z,4.01
2023-04-04T17:02:10.502Z,4.03
2023-04-04T17:04:41.988Z,4.04
2023-04-04T17:07:11.675Z,3.96
2023-04-04T17:09:38.591Z,3.87
2023-04-04T17:12:05.505Z,3.91
2023-04-04T17:14:32.141Z,3.77
2023-04-04T17:17:00.726Z,3.76
2023-04-04T17:19:31.860Z,3.74
2023-04-04T17:21:58.932Z,3.62
2023-04-04T17:24:27.236Z,3.55
2023-04-04T17:26:54.603Z,3.53
2023-04-04T17:29:26.562Z,3.55
2023-04-04T17:31:57.137Z,3.48
2023-04-04T17:34:24.352Z,3.50
2023-04-04T17:36:52.630Z,3.45
2023-04-04T17:39:19.365Z,3.36
2023-04-04T17:41:49.593Z,3.35
2023-04-04T17:44:20.190Z,3.31
2023-04-04T17:46:47.079Z,3.23
2023-04-04T17:49:19.538Z,3.18
2023-04-04T17:51:49.940Z,3.14
2023-04-04T17:54:17.525Z,3.10
2023-04-04T17:56:46.933Z,3.10
2023-04-04T17:59:14.809Z,3.03
2023-04-04T18:01:41.812Z,3.06
2023-04-04T18:04:09.091Z,3.03
2023-04-04T18:06:37.642Z,3.02
2023-04-04T18:09:05.608Z,3.00
2023-04-04T18:11:36.621Z,2.87
2023-04-04T18:14:04.279Z,2.82
2023-04-04T18:16:39.117Z,2.73
2023-04-04T18:19:07.517Z,2.71
2023-04-04T18:21:34.117Z,2.64
2023-04-04T18:24:00.848Z,2.65
2023-04-04T18:26:27.865Z,2.66
2023-04-04T18:28:54.558Z,2.61
2023-04-04T18:31:21.626Z,2.61
2023-04-04T18:33:49.908Z,2.63
2023-04-04T18:36:16.675Z,2.71
2023-04-04T18:38:43.383Z,2.69
2023-04-04T18:41:10.094Z,2.59
2023-04-04T18:43:37.279Z,2.56
2023-04-04T18:46:05.752Z,2.55
2023-04-04T18:48:33.894Z,2.52
2023-04-04T18:51:01.596Z,2.43
2023-04-04T18:53:31.403Z,2.39
2023-04-04T18:55:58.598Z,2.40
2023-04-04T18:58:26.058Z,2.40
2023-04-04T19:00:58.434Z,2.36
2023-04-04T19:03:26.665Z,2.37
2023-04-04T19:05:55.650Z,2.33
2023-04-04T19:08:24.212Z,2.31
2023-04-04T19:10:51.304Z,2.29
2023-04-04T19:13:18.475Z,2.34
2023-04-04T19:15:45.141Z,2.36
2023-04-04T19:18:11.900Z,2.34
2023-04-04T19:20:42.016Z,2.38
2023-04-04T19:23:08.849Z,2.31
2023-04-04T19:25:35.507Z,2.27
2023-04-04T19:28:04.261Z,2.26
2023-04-04T19:30:39.831Z,2.25
2023-04-04T19:33:14.773Z,2.22
2023-04-04T19:35:50.975Z,2.21
2023-04-04T19:38:33.765Z,2.12
2023-04-04T19:41:08.364Z,2.11
2023-04-04T19:43:35.066Z,2.07
2023-04-04T19:46:10.264Z,2.03
2023-04-04T19:48:50.940Z,2.03
2023-04-04T19:51:20.425Z,2.06
2023-04-04T19:53:49.580Z,1.98
2023-04-04T19:56:17.971Z,1.98
2023-04-04T19:58:45.662Z,1.97
2023-04-04T20:01:20.832Z,1.99
2023-04-04T20:03:48.154Z,1.90
2023-04-04T20:06:27.681Z,1.93
2023-04-04T20:08:59.555Z,1.93
2023-04-04T20:11:33.766Z,1.88
2023-04-04T20:14:02.584Z,1.90
2023-04-04T20:16:30.201Z,1.93
2023-04-04T20:18:59.081Z,1.91
2023-04-04T20:21:28.459Z,1.84
2023-04-04T20:23:57.881Z,1.83
2023-04-04T20:26:41.388Z,1.78
2023-04-04T20:29:15.480Z,1.79
2023-04-04T20:32:04.407Z,1.75
2023-04-04T20:34:39.423Z,1.77
2023-04-04T20:37:07.935Z,1.76
2023-04-04T20:39:45.529Z,1.77
2023-04-04T20:42:33.980Z,1.78
2023-04-04T20:45:09.809Z,1.73
2023-04-04T20:47:48.632Z,1.68
2023-04-04T20:50:18.623Z,1.75
2023-04-04T20:52:53.387Z,1.71
2023-04-04T20:55:22.720Z,1.75
2023-04-04T20:57:50.958Z,1.73
2023-04-04T21:00:29.722Z,1.73
2023-04-04T21:02:58.704Z,1.70
2023-04-04T21:05:33.554Z,1.70
2023-04-04T21:08:02.757Z,1.64
2023-04-04T21:10:29.403Z,1.62
2023-04-04T21:13:03.362Z,1.60
2023-04-04T21:15:35.104Z,1.62
2023-04-04T21:18:06.514Z,1.63
2023-04-04T21:20:49.073Z,1.63
2023-04-04T21:23:30.618Z,1.60
2023-04-04T21:25:59.705Z,1.48
2023-04-04T21:28:34.994Z,1.50
2023-04-04T21:31:09.097Z,1.46
2023-04-04T21:33:38.108Z,1.47
2023-04-04T21:36:07.768Z,1.42
2023-04-04T21:38:35.279Z,1.39
2023-04-04T21:41:10.761Z,1.41
2023-04-04T21:43:37.392Z,1.38
2023-04-04T21:46:04.095Z,1.37
2023-04-04T21:48:32.064Z,1.33
2023-04-04T21:50:58.729Z,1.40
2023-04-04T21:53:25.534Z,1.32
2023-04-04T21:55:52.086Z,1.33
2023-04-04T21:58:19.030Z,1.28
2023-04-04T22:00:45.677Z,1.28
2023-04-04T22:03:15.541Z,1.32
2023-04-04T22:05:42.478Z,1.37
2023-04-04T22:08:09.204Z,1.36
2023-04-04T22:10:45.583Z,1.33
2023-04-04T22:13:14.896Z,1.33
2023-04-04T22:15:44.960Z,1.32
2023-04-04T22:18:14.925Z,1.35
2023-04-04T22:20:46.530Z,1.29
2023-04-04T22:23:15.659Z,1.31
2023-04-04T22:25:42.367Z,1.31
2023-04-04T22:28:09.762Z,1.30
2023-04-04T22:30:39.210Z,1.32
2023-04-04T22:33:06.282Z,1.28
2023-04-04T22:35:35.638Z,1.26
2023-04-04T22:38:03.689Z,1.20
2023-04-04T22:40:32.162Z,1.25
2023-04-04T22:42:59.867Z,1.23
2023-04-04T22:45:27.252Z,1.19
2023-04-04T22:47:54.988Z,1.14
2023-04-04T22:50:23.416Z,1.21
2023-04-04T22:52:50.811Z,1.23
2023-04-04T22:55:20.917Z,1.21
2023-04-04T22:57:47.475Z,1.19
2023-04-04T23:00:14.964Z,1.22
2023-04-04T23:02:43.215Z,1.15
2023-04-04T23:05:10.695Z,1.15
2023-04-04T23:07:38.267Z,1.19
2023-04-04T23:10:06.224Z,1.15
2023-04-04T23:12:33.018Z,1.08
2023-04-04T23:15:01.609Z,1.09
2023-04-04T23:17:28.527Z,1.11
2023-04-04T23:19:55.220Z,1.09
2023-04-04T23:22:22.080Z,1.06
2023-04-04T23:24:49.163Z,1.06
2023-04-04T23:27:18.973Z,1.05
2023-04-04T23:29:46.576Z,1.07
2023-04-04T23:32:13.900Z,1.05
2023-04-04T23:34:40.590Z,1.08
2023-04-04T23:37:07.492Z,1.11
2023-04-04T23:39:34.388Z,1.11
2023-04-04T23:42:01.228Z,1.12
2023-04-04T23:44:27.898Z,1.06
2023-04-04T23:46:54.572Z,1.04
2023-04-04T23:49:21.280Z,0.98
2023-04-04T23:51:47.959Z,0.96
2023-04-04T23:54:14.666Z,0.94
2023-04-04T23:56:41.383Z,0.95
2023-04-04T23:59:08.244Z,0.97
